Pomeroy, Washington
Current Conditions -  °F | °C
As of 5:56 AM on Thursday 23 Oct 2014 (Local Time) from KLWS Reporting Station
Overcast Overcast  
Wind Chill: 58°   Ceiling: 7000
Heat Index: 58°   Visibility: 10mi
Dew Point: 45°   Wind: 8mph
Humidity: 62%   Direction: 100°E
Pressure: 29.8"   Gusts: NA
Location:  46.47°N, 117.6°W
Report Text: KLWS 231256Z AUTO 10007KT 10SM OVC070 14/07 A2980 RMK AO2 SLP087 T01440072
Loading
Personal Weather Stations






























Interactive Weather Map
Tropical Storm Tracking
New forecast layout! Learn more

10-Day Weather Forecast

Advertisements
Track Severe Weather on mobile